Time;durP1;ratioP1;P1;durP2;ratioP2;P2;SDS_P1;SDS_P2;PMS_P1;PMS_P2;Temp;Humidity;BMP_temperature;BMP_pressure;BME280_temperature;BME280_humidity;BME280_pressure;Samples;Min_cycle;Max_cycle;Signal;HPM_P1;HPM_P2
2023/08/10 00:01:41;;;;;;;2.87;1.80;;;21.40;81.70;;;;;;5051997;28;20228;-71
2023/08/10 00:04:08;;;;;;;2.33;1.87;;;21.30;81.60;;;;;;5051270;28;20190;-71
2023/08/10 00:06:38;;;;;;;2.00;1.80;;;21.30;81.70;;;;;;5051742;28;20237;-72
2023/08/10 00:09:05;;;;;;;2.57;2.00;;;21.30;81.90;;;;;;5051419;28;20784;-71
2023/08/10 00:11:32;;;;;;;1.70;1.60;;;21.30;81.90;;;;;;5064041;28;20234;-71
2023/08/10 00:13:58;;;;;;;2.37;1.83;;;21.20;81.90;;;;;;5052564;28;20238;-73
2023/08/10 00:16:25;;;;;;;4.40;1.80;;;21.10;81.80;;;;;;5052049;28;20672;-73
2023/08/10 00:18:52;;;;;;;2.13;1.90;;;21.10;81.90;;;;;;5069295;28;20292;-72
2023/08/10 00:21:19;;;;;;;1.80;1.70;;;21.10;81.90;;;;;;5071575;28;20198;-73
2023/08/10 00:23:47;;;;;;;1.87;1.63;;;21.00;81.90;;;;;;5055921;28;20514;-71
2023/08/10 00:26:14;;;;;;;2.20;2.00;;;21.00;82.00;;;;;;5062965;28;20207;-73
2023/08/10 00:28:41;;;;;;;2.20;1.77;;;21.00;82.00;;;;;;5051875;28;20701;-72
2023/08/10 00:31:08;;;;;;;1.80;1.70;;;20.90;82.00;;;;;;5051432;28;20244;-71
2023/08/10 00:33:35;;;;;;;1.97;1.83;;;20.90;81.90;;;;;;5051376;28;20228;-72
2023/08/10 00:36:06;;;;;;;2.60;2.03;;;20.90;82.00;;;;;;5070053;28;20657;-72
2023/08/10 00:38:34;;;;;;;1.97;1.80;;;20.80;81.70;;;;;;5058694;28;20215;-71
2023/08/10 00:41:03;;;;;;;3.50;2.10;;;20.80;81.60;;;;;;5071043;28;20282;-72
2023/08/10 00:43:29;;;;;;;2.03;1.80;;;20.70;81.80;;;;;;5063543;28;20213;-73
2023/08/10 00:45:57;;;;;;;1.67;1.57;;;20.80;81.90;;;;;;5074628;28;20283;-71
2023/08/10 00:48:25;;;;;;;2.27;1.67;;;20.70;81.80;;;;;;5040382;28;20226;-71
2023/08/10 00:50:53;;;;;;;2.07;1.87;;;20.70;81.80;;;;;;5071166;28;20196;-71
2023/08/10 00:53:21;;;;;;;1.63;1.43;;;20.70;81.70;;;;;;5063206;28;20722;-72
2023/08/10 00:55:51;;;;;;;2.33;1.83;;;20.60;81.60;;;;;;5068610;28;20323;-72
2023/08/10 00:58:20;;;;;;;2.30;1.67;;;20.60;81.70;;;;;;5068965;28;20251;-72
2023/08/10 01:00:47;;;;;;;1.60;1.50;;;20.60;81.90;;;;;;5059138;28;20312;-73
2023/08/10 01:03:14;;;;;;;3.20;2.10;;;20.50;81.70;;;;;;5054602;28;20273;-72
2023/08/10 01:05:50;;;;;;;3.77;1.83;;;20.50;81.70;;;;;;5061654;28;20236;-71
2023/08/10 01:08:22;;;;;;;3.43;1.70;;;20.50;82.00;;;;;;5055907;28;20197;-71
2023/08/10 01:11:03;;;;;;;1.60;1.50;;;20.40;81.80;;;;;;5055132;28;20198;-71
2023/08/10 01:13:39;;;;;;;2.67;1.90;;;20.40;82.10;;;;;;5072554;28;20240;-72
2023/08/10 01:16:10;;;;;;;2.10;1.90;;;20.40;82.20;;;;;;5074195;28;20662;-71
2023/08/10 01:18:37;;;;;;;4.53;2.07;;;20.40;82.10;;;;;;5064635;28;20713;-71
2023/08/10 01:21:18;;;;;;;2.13;2.00;;;20.30;82.10;;;;;;5054310;28;20228;-72
2023/08/10 01:23:49;;;;;;;3.47;1.97;;;20.20;82.30;;;;;;5054627;28;20620;-72
2023/08/10 01:26:17;;;;;;;2.37;2.17;;;20.20;82.20;;;;;;5055318;28;20205;-71
2023/08/10 01:28:45;;;;;;;2.03;1.83;;;20.20;82.30;;;;;;5071008;28;20730;-72
2023/08/10 01:31:12;;;;;;;2.70;1.93;;;20.10;82.20;;;;;;5072437;28;20189;-71
2023/08/10 01:33:39;;;;;;;2.80;1.70;;;20.10;82.30;;;;;;5061802;28;20236;-73
2023/08/10 01:36:06;;;;;;;2.00;1.80;;;20.10;82.20;;;;;;5070596;28;20228;-73
2023/08/10 01:38:33;;;;;;;3.40;1.90;;;20.00;82.10;;;;;;5074153;28;20223;-71
2023/08/10 01:41:00;;;;;;;2.33;1.70;;;20.00;82.10;;;;;;5073877;28;20225;-71
2023/08/10 01:43:28;;;;;;;2.10;1.90;;;20.00;82.20;;;;;;5067696;28;20204;-73
2023/08/10 01:45:56;;;;;;;2.40;2.20;;;20.00;82.50;;;;;;5054380;28;20232;-72
2023/08/10 01:48:28;;;;;;;2.70;1.97;;;19.90;82.40;;;;;;5055794;28;20202;-71
2023/08/10 01:50:55;;;;;;;1.93;1.80;;;19.90;82.60;;;;;;5062883;28;20292;-71
2023/08/10 01:53:29;;;;;;;1.97;1.67;;;19.90;82.70;;;;;;5053986;28;20239;-71
2023/08/10 01:55:57;;;;;;;2.03;1.83;;;19.80;82.70;;;;;;5073712;28;20203;-72
2023/08/10 01:58:24;;;;;;;2.50;2.30;;;19.80;82.60;;;;;;5072978;28;20270;-72
2023/08/10 02:00:52;;;;;;;2.10;1.90;;;19.80;82.50;;;;;;5074230;28;20233;-73
2023/08/10 02:03:19;;;;;;;1.97;1.67;;;19.70;82.30;;;;;;5073621;28;20287;-72
2023/08/10 02:05:46;;;;;;;2.17;1.80;;;19.70;82.30;;;;;;5074116;28;20211;-71
2023/08/10 02:08:13;;;;;;;3.03;1.53;;;19.70;82.40;;;;;;5073434;28;20197;-73
2023/08/10 02:10:40;;;;;;;4.87;1.90;;;19.70;82.30;;;;;;5073016;28;20711;-71
2023/08/10 02:13:07;;;;;;;2.00;1.80;;;19.70;82.30;;;;;;5068025;28;20218;-72
2023/08/10 02:15:34;;;;;;;3.30;1.90;;;19.60;83.10;;;;;;5061721;28;20239;-71
2023/08/10 02:18:02;;;;;;;2.50;1.60;;;19.60;82.30;;;;;;5073087;28;20219;-72
2023/08/10 02:20:29;;;;;;;1.97;1.77;;;19.60;82.20;;;;;;5058237;28;20208;-72
2023/08/10 02:22:56;;;;;;;3.47;1.63;;;19.60;82.30;;;;;;5054565;28;20653;-72
2023/08/10 02:25:23;;;;;;;1.60;1.50;;;19.60;82.30;;;;;;5053182;28;20250;-71
2023/08/10 02:27:51;;;;;;;1.90;1.80;;;19.50;82.50;;;;;;5047121;28;20253;-71
2023/08/10 02:30:18;;;;;;;2.20;1.80;;;19.50;82.60;;;;;;5072946;28;20229;-72
2023/08/10 02:32:46;;;;;;;2.10;1.90;;;19.50;82.50;;;;;;5072746;28;20300;-72
2023/08/10 02:35:14;;;;;;;3.00;1.80;;;19.50;82.50;;;;;;5070564;28;20560;-72
2023/08/10 02:37:42;;;;;;;1.93;1.83;;;19.50;82.60;;;;;;5053308;28;20536;-71
2023/08/10 02:40:11;;;;;;;3.37;2.30;;;19.50;82.60;;;;;;5035436;28;20204;-72
2023/08/10 02:42:38;;;;;;;2.77;2.10;;;19.40;82.50;;;;;;5062882;28;20293;-71
2023/08/10 02:45:06;;;;;;;2.77;2.00;;;19.40;82.40;;;;;;5068004;28;20220;-71
2023/08/10 02:47:34;;;;;;;2.13;1.93;;;19.40;82.40;;;;;;5052930;28;20653;-73
2023/08/10 02:50:01;;;;;;;3.00;2.03;;;19.40;82.30;;;;;;5052627;28;20936;-72
2023/08/10 02:52:29;;;;;;;2.00;1.90;;;19.30;82.30;;;;;;5058485;28;20200;-71
2023/08/10 02:54:56;;;;;;;2.20;2.00;;;19.30;82.40;;;;;;5070682;28;20239;-72
2023/08/10 02:57:23;;;;;;;3.33;2.33;;;19.30;83.10;;;;;;5057252;28;20210;-72
2023/08/10 02:59:50;;;;;;;2.03;1.90;;;19.20;82.30;;;;;;5063373;28;20473;-72
2023/08/10 03:02:17;;;;;;;2.03;1.83;;;19.20;82.30;;;;;;5067748;28;20482;-71
2023/08/10 03:04:44;;;;;;;2.33;2.10;;;19.20;82.30;;;;;;5063602;28;20790;-71
2023/08/10 03:07:11;;;;;;;2.47;1.83;;;19.20;82.30;;;;;;5062926;28;20864;-71
2023/08/10 03:09:41;;;;;;;2.57;2.10;;;19.10;82.30;;;;;;5059705;28;20190;-72
2023/08/10 03:12:09;;;;;;;2.20;2.00;;;19.10;82.40;;;;;;5060475;28;20198;-71
2023/08/10 03:14:36;;;;;;;2.07;1.90;;;19.10;82.50;;;;;;5064932;28;20221;-71
2023/08/10 03:17:03;;;;;;;4.40;2.20;;;19.10;82.30;;;;;;5057979;28;20213;-73
2023/08/10 03:19:29;;;;;;;2.27;2.07;;;19.10;82.30;;;;;;5060213;28;20224;-72
2023/08/10 03:21:56;;;;;;;2.93;2.07;;;19.00;82.20;;;;;;5063552;28;20719;-72
2023/08/10 03:24:23;;;;;;;2.20;2.00;;;19.10;82.20;;;;;;5044458;28;20625;-72
2023/08/10 03:26:51;;;;;;;2.23;2.03;;;19.10;82.20;;;;;;5069550;28;20695;-71
2023/08/10 03:29:18;;;;;;;2.47;2.07;;;19.00;82.10;;;;;;5067083;28;20240;-71
2023/08/10 03:31:45;;;;;;;2.40;2.20;;;19.00;82.10;;;;;;5063972;28;20235;-73
2023/08/10 03:34:12;;;;;;;2.13;1.93;;;19.00;82.10;;;;;;5063599;28;20220;-71
2023/08/10 03:36:38;;;;;;;2.60;2.40;;;19.00;82.10;;;;;;5060037;28;20724;-71
2023/08/10 03:39:05;;;;;;;3.07;2.23;;;19.00;82.10;;;;;;5043263;28;20561;-71
2023/08/10 03:41:32;;;;;;;2.87;1.90;;;19.00;82.10;;;;;;5061028;28;20202;-71
2023/08/10 03:44:01;;;;;;;1.90;1.80;;;19.00;82.10;;;;;;5058800;28;20199;-71
2023/08/10 03:46:28;;;;;;;2.80;2.20;;;18.90;82.10;;;;;;5061139;28;20205;-71
2023/08/10 03:48:54;;;;;;;2.73;2.20;;;18.90;82.10;;;;;;5061304;28;20458;-71
2023/08/10 03:51:21;;;;;;;2.30;2.00;;;18.90;82.10;;;;;;5061059;28;20289;-72
2023/08/10 03:53:48;;;;;;;2.20;2.00;;;18.90;82.20;;;;;;5061600;28;20226;-71
2023/08/10 03:56:15;;;;;;;3.27;2.60;;;18.90;82.10;;;;;;5061965;28;20202;-72
2023/08/10 03:58:42;;;;;;;2.83;1.70;;;18.80;82.10;;;;;;5060007;28;20572;-72
2023/08/10 04:01:11;;;;;;;4.30;2.33;;;18.70;82.00;;;;;;5068931;28;20209;-71
2023/08/10 04:03:38;;;;;;;2.00;1.80;;;18.70;82.20;;;;;;5070093;28;20251;-71
2023/08/10 04:06:05;;;;;;;3.23;2.30;;;18.70;82.00;;;;;;5066112;28;20208;-71
2023/08/10 04:08:32;;;;;;;2.80;1.93;;;18.70;82.20;;;;;;5071595;28;20228;-71
2023/08/10 04:10:59;;;;;;;3.67;2.23;;;18.70;82.30;;;;;;5070143;28;20708;-71
2023/08/10 04:13:26;;;;;;;2.03;1.83;;;18.70;82.20;;;;;;5051294;28;20228;-71
2023/08/10 04:15:53;;;;;;;2.50;2.30;;;18.70;82.20;;;;;;5062451;28;20286;-72
2023/08/10 04:18:21;;;;;;;3.20;1.90;;;18.70;82.10;;;;;;5057018;28;20271;-72
2023/08/10 04:20:48;;;;;;;2.50;2.10;;;18.70;81.90;;;;;;5052617;28;20241;-71
2023/08/10 04:23:15;;;;;;;4.43;2.30;;;18.70;81.90;;;;;;5064171;28;20208;-71
2023/08/10 04:25:42;;;;;;;3.83;2.03;;;18.70;81.90;;;;;;5064606;28;20505;-72
2023/08/10 04:28:08;;;;;;;3.43;2.00;;;18.60;81.70;;;;;;5070855;28;20800;-73
2023/08/10 04:30:35;;;;;;;3.43;2.50;;;18.70;81.90;;;;;;5071477;28;20189;-72
2023/08/10 04:33:03;;;;;;;4.70;2.00;;;18.60;81.70;;;;;;5071350;28;20884;-73
2023/08/10 04:35:31;;;;;;;2.27;2.07;;;18.60;82.20;;;;;;5068733;28;20740;-72
2023/08/10 04:37:58;;;;;;;3.20;2.00;;;18.60;82.50;;;;;;5051246;28;20305;-71
2023/08/10 04:40:25;;;;;;;2.17;1.90;;;18.60;82.50;;;;;;5051479;28;20463;-72
2023/08/10 04:42:52;;;;;;;2.00;1.80;;;18.60;82.40;;;;;;5059190;28;20446;-71
2023/08/10 04:45:19;;;;;;;2.30;2.00;;;18.70;82.00;;;;;;5071446;28;20675;-71
2023/08/10 04:47:46;;;;;;;4.30;2.13;;;18.60;81.70;;;;;;5070563;28;20624;-71
2023/08/10 04:50:13;;;;;;;1.77;1.60;;;18.60;81.70;;;;;;5071366;28;20307;-71
2023/08/10 04:52:43;;;;;;;2.30;1.70;;;18.60;81.80;;;;;;5071359;28;20457;-72
2023/08/10 04:55:10;;;;;;;13.60;5.03;;;18.60;82.10;;;;;;5071199;28;20661;-72
2023/08/10 04:57:38;;;;;;;12.53;4.73;;;18.70;82.90;;;;;;5060765;28;20452;-72
2023/08/10 05:00:09;;;;;;;23.00;7.57;;;18.70;83.40;;;;;;5057823;28;20216;-71
2023/08/10 05:02:38;;;;;;;9.87;3.87;;;18.70;84.10;;;;;;5047962;28;20849;-71
2023/08/10 05:05:06;;;;;;;7.83;3.50;;;18.70;85.00;;;;;;5061808;28;20636;-71
2023/08/10 05:07:33;;;;;;;3.53;2.20;;;18.80;84.20;;;;;;5066698;28;20253;-71
2023/08/10 05:10:04;;;;;;;2.47;2.27;;;18.90;84.20;;;;;;5059737;28;20205;-72
2023/08/10 05:12:31;;;;;;;3.47;2.40;;;18.90;84.50;;;;;;5067318;28;20312;-72
2023/08/10 05:14:58;;;;;;;3.10;2.20;;;18.90;84.60;;;;;;5071082;28;20482;-72
2023/08/10 05:17:25;;;;;;;2.17;1.97;;;19.00;85.00;;;;;;5071103;28;20443;-71
2023/08/10 05:19:52;;;;;;;2.30;2.07;;;19.00;85.10;;;;;;5071023;28;20215;-70
2023/08/10 05:22:19;;;;;;;4.00;2.30;;;19.00;85.20;;;;;;5072169;28;20557;-71
2023/08/10 05:24:46;;;;;;;2.97;2.20;;;19.10;85.10;;;;;;5060937;28;20619;-71
2023/08/10 05:27:14;;;;;;;2.33;2.13;;;19.10;85.20;;;;;;5056355;28;20218;-72
2023/08/10 05:29:41;;;;;;;2.23;2.03;;;19.20;85.30;;;;;;5063540;28;20260;-72
2023/08/10 05:32:08;;;;;;;2.40;2.20;;;19.30;85.00;;;;;;5054727;28;20323;-72
2023/08/10 05:34:35;;;;;;;4.97;2.40;;;19.30;85.00;;;;;;5071386;28;20577;-72
2023/08/10 05:37:02;;;;;;;2.20;2.00;;;19.30;85.20;;;;;;5071356;28;20193;-72
2023/08/10 05:39:28;;;;;;;2.87;2.20;;;19.20;85.00;;;;;;5059535;28;20205;-72
2023/08/10 05:41:55;;;;;;;2.47;2.27;;;19.20;84.40;;;;;;5064082;28;20227;-71
2023/08/10 05:44:23;;;;;;;2.43;2.23;;;19.20;84.60;;;;;;5054195;28;20680;-71
2023/08/10 05:46:50;;;;;;;3.50;2.27;;;19.20;84.70;;;;;;5054538;28;20236;-72
2023/08/10 05:49:17;;;;;;;3.13;2.30;;;19.30;85.20;;;;;;5071511;28;20220;-73
2023/08/10 05:51:44;;;;;;;2.77;2.40;;;19.30;86.10;;;;;;5074110;28;20565;-71
2023/08/10 05:54:10;;;;;;;2.10;2.00;;;19.30;85.00;;;;;;5074276;28;20209;-72
2023/08/10 05:56:38;;;;;;;2.30;2.10;;;19.40;84.70;;;;;;5068071;28;20229;-70
2023/08/10 05:59:05;;;;;;;2.27;2.07;;;19.40;85.60;;;;;;5053993;28;20258;-71
2023/08/10 06:01:33;;;;;;;3.00;2.13;;;19.40;85.00;;;;;;5073048;28;20627;-71
2023/08/10 06:04:00;;;;;;;2.33;1.97;;;19.50;85.30;;;;;;5073440;28;20722;-72
2023/08/10 06:06:28;;;;;;;3.33;2.30;;;19.50;85.50;;;;;;5074057;28;20296;-71
2023/08/10 06:08:54;;;;;;;2.57;2.37;;;19.50;85.50;;;;;;5063215;28;20256;-71
2023/08/10 06:11:21;;;;;;;5.30;2.10;;;19.50;85.50;;;;;;5053947;28;20194;-71
2023/08/10 06:13:48;;;;;;;3.50;2.50;;;19.50;85.30;;;;;;5053786;28;20550;-71
2023/08/10 06:16:15;;;;;;;2.40;2.07;;;19.50;85.70;;;;;;5057190;28;20227;-72
2023/08/10 06:18:44;;;;;;;2.63;2.23;;;19.60;85.80;;;;;;5070402;28;20200;-72
2023/08/10 06:21:10;;;;;;;2.53;2.27;;;19.60;85.80;;;;;;5073439;28;20712;-71
2023/08/10 06:23:37;;;;;;;2.60;2.40;;;19.60;85.80;;;;;;5069868;28;20210;-72
2023/08/10 06:26:05;;;;;;;2.20;2.00;;;19.60;85.90;;;;;;5053550;28;20204;-71
2023/08/10 06:28:32;;;;;;;3.17;2.27;;;19.70;86.60;;;;;;5055084;28;20324;-71
2023/08/10 06:30:59;;;;;;;4.30;2.33;;;19.70;85.70;;;;;;5073132;28;20672;-71
2023/08/10 06:33:26;;;;;;;2.47;2.13;;;19.80;85.50;;;;;;5071182;28;20229;-71
2023/08/10 06:35:55;;;;;;;2.40;2.20;;;19.80;85.00;;;;;;5053061;28;20567;-72
2023/08/10 06:38:22;;;;;;;3.27;2.50;;;19.90;84.00;;;;;;5064806;28;20278;-72
2023/08/10 06:40:49;;;;;;;2.97;2.03;;;20.00;83.90;;;;;;5073093;28;20216;-70
2023/08/10 06:43:15;;;;;;;2.40;2.20;;;20.10;83.30;;;;;;5062361;28;20220;-72
2023/08/10 06:45:43;;;;;;;2.50;2.30;;;20.10;83.50;;;;;;5064677;28;20190;-71
2023/08/10 06:48:09;;;;;;;4.13;2.20;;;20.30;84.40;;;;;;5066758;28;20301;-71
2023/08/10 06:50:37;;;;;;;4.30;2.50;;;20.30;84.60;;;;;;5072851;28;20312;-71
2023/08/10 06:53:07;;;;;;;2.20;2.00;;;20.40;84.50;;;;;;5072766;28;20212;-71
2023/08/10 06:55:34;;;;;;;2.80;2.37;;;20.40;84.00;;;;;;5052251;28;20229;-72
2023/08/10 06:58:05;;;;;;;3.20;2.37;;;20.50;83.70;;;;;;5053043;28;20233;-72
2023/08/10 07:00:32;;;;;;;3.50;2.60;;;20.60;84.70;;;;;;5052498;28;20198;-72
2023/08/10 07:02:59;;;;;;;3.93;2.40;;;20.70;84.20;;;;;;5052559;28;20247;-71
2023/08/10 07:05:27;;;;;;;3.07;2.23;;;20.70;84.70;;;;;;5052416;28;20209;-71
2023/08/10 07:07:53;;;;;;;2.33;2.00;;;20.80;83.20;;;;;;5052198;28;20566;-72
2023/08/10 07:10:22;;;;;;;2.33;2.13;;;20.80;83.50;;;;;;5052148;28;20661;-71
2023/08/10 07:12:49;;;;;;;3.00;2.50;;;20.90;83.30;;;;;;5052500;28;20274;-71
2023/08/10 07:15:17;;;;;;;2.50;2.30;;;20.90;83.60;;;;;;5052521;28;20225;-73
2023/08/10 07:17:44;;;;;;;2.67;2.43;;;20.90;81.80;;;;;;5051956;28;20201;-72
2023/08/10 07:20:12;;;;;;;2.90;2.60;;;21.00;81.60;;;;;;5051122;28;20222;-72
2023/08/10 07:22:45;;;;;;;2.40;2.20;;;21.00;82.30;;;;;;5052406;28;20206;-72
2023/08/10 07:25:12;;;;;;;2.67;1.90;;;21.10;81.90;;;;;;5052251;28;20431;-72
2023/08/10 07:27:40;;;;;;;2.60;2.40;;;21.10;82.00;;;;;;5052209;28;20220;-73
2023/08/10 07:30:09;;;;;;;3.20;2.20;;;21.20;82.70;;;;;;5051901;28;20233;-72
2023/08/10 07:32:36;;;;;;;2.77;2.30;;;21.30;82.30;;;;;;5052381;28;20206;-72
2023/08/10 07:35:03;;;;;;;2.93;2.50;;;21.40;82.20;;;;;;5051901;28;20229;-73
2023/08/10 07:37:31;;;;;;;4.27;2.60;;;21.50;82.10;;;;;;5051830;28;20420;-72
2023/08/10 07:39:58;;;;;;;2.40;2.20;;;21.50;82.20;;;;;;5056454;28;20221;-72
2023/08/10 07:42:24;;;;;;;3.83;3.23;;;21.60;82.30;;;;;;5059599;28;20224;-73
2023/08/10 07:44:53;;;;;;;4.37;3.13;;;21.70;82.80;;;;;;5071443;28;20634;-72
2023/08/10 07:47:19;;;;;;;4.83;2.73;;;21.80;81.60;;;;;;5065732;28;20224;-73
2023/08/10 07:49:46;;;;;;;3.40;3.07;;;21.80;81.00;;;;;;5062518;28;20221;-72
2023/08/10 07:52:13;;;;;;;4.03;2.93;;;21.90;81.20;;;;;;5066426;28;20225;-73
2023/08/10 07:54:40;;;;;;;3.23;2.93;;;21.90;80.70;;;;;;5052804;28;20233;-73
2023/08/10 07:57:07;;;;;;;3.90;2.63;;;21.90;80.50;;;;;;5052194;28;20226;-73
2023/08/10 07:59:34;;;;;;;5.37;3.03;;;22.00;81.20;;;;;;5051981;28;20343;-73
2023/08/10 08:02:02;;;;;;;4.20;3.50;;;22.10;81.10;;;;;;5054381;28;20250;-73
2023/08/10 08:04:29;;;;;;;3.77;3.23;;;22.10;80.30;;;;;;5068249;28;20205;-73
2023/08/10 08:06:56;;;;;;;3.40;2.90;;;22.20;80.40;;;;;;5052047;28;20308;-72
2023/08/10 08:09:23;;;;;;;4.07;2.67;;;22.30;80.60;;;;;;5065875;28;20245;-72
2023/08/10 08:11:50;;;;;;;3.30;2.70;;;22.40;80.60;;;;;;5062473;28;20206;-72
2023/08/10 08:14:17;;;;;;;3.87;3.00;;;22.50;81.20;;;;;;5052215;28;20204;-71
2023/08/10 08:16:44;;;;;;;3.50;3.20;;;22.60;81.50;;;;;;5068635;28;20229;-72
2023/08/10 08:19:12;;;;;;;4.90;3.40;;;22.70;81.40;;;;;;5058996;28;20333;-73
2023/08/10 08:21:39;;;;;;;4.47;3.33;;;22.80;81.10;;;;;;5051236;28;20304;-72
2023/08/10 08:24:06;;;;;;;3.40;2.97;;;22.90;80.10;;;;;;5052486;28;20261;-72
2023/08/10 08:26:33;;;;;;;5.13;3.37;;;22.90;80.00;;;;;;5064473;28;20241;-72
2023/08/10 08:29:00;;;;;;;4.43;3.67;;;23.00;80.40;;;;;;5059976;28;20282;-72
2023/08/10 08:31:27;;;;;;;3.53;3.23;;;23.10;80.10;;;;;;5056142;28;20201;-71
2023/08/10 08:33:54;;;;;;;3.30;3.00;;;23.10;79.60;;;;;;5076376;28;20252;-71
2023/08/10 08:36:22;;;;;;;5.50;3.73;;;23.20;79.40;;;;;;5072125;28;20312;-71
2023/08/10 08:38:49;;;;;;;3.77;3.30;;;23.20;80.20;;;;;;5054850;28;20208;-72
2023/08/10 08:41:18;;;;;;;4.33;3.27;;;23.30;79.40;;;;;;5055782;28;20283;-73
2023/08/10 08:43:47;;;;;;;4.37;3.17;;;23.40;80.40;;;;;;5055330;28;20682;-71
2023/08/10 08:46:14;;;;;;;4.70;3.03;;;23.50;81.10;;;;;;5051478;28;20230;-71
2023/08/10 08:48:42;;;;;;;4.07;3.67;;;23.70;81.10;;;;;;5051125;28;20685;-72
2023/08/10 08:51:09;;;;;;;3.43;2.87;;;23.80;80.20;;;;;;5051462;28;20590;-71
2023/08/10 08:53:39;;;;;;;3.77;3.33;;;23.90;79.70;;;;;;5060245;28;20201;-73
2023/08/10 08:56:05;;;;;;;3.60;2.83;;;23.90;79.20;;;;;;5060126;28;20224;-72
2023/08/10 08:58:32;;;;;;;3.10;2.77;;;24.00;79.40;;;;;;5074783;28;20242;-71
2023/08/10 09:01:01;;;;;;;3.00;2.70;;;24.10;80.00;;;;;;5057338;28;20243;-71
2023/08/10 09:03:28;;;;;;;3.10;2.80;;;24.20;80.00;;;;;;5074733;28;20643;-72
2023/08/10 09:05:55;;;;;;;2.90;2.70;;;24.30;79.80;;;;;;5071346;28;20703;-73
2023/08/10 09:08:22;;;;;;;3.30;2.80;;;24.40;80.20;;;;;;5061022;28;20304;-72
2023/08/10 09:10:51;;;;;;;3.70;2.60;;;24.50;80.70;;;;;;5070364;28;20225;-75
2023/08/10 09:13:21;;;;;;;4.17;3.00;;;24.60;80.60;;;;;;5074893;28;20395;-73
2023/08/10 09:16:03;;;;;;;3.43;2.80;;;24.80;80.60;;;;;;5060731;28;20228;-72
2023/08/10 09:18:32;;;;;;;3.90;3.20;;;24.90;79.60;;;;;;5062233;28;20229;-73
2023/08/10 09:21:08;;;;;;;3.57;3.17;;;25.00;78.50;;;;;;5074781;28;20289;-72
2023/08/10 09:23:36;;;;;;;3.83;3.00;;;25.00;77.80;;;;;;5070290;28;20189;-72
2023/08/10 09:26:09;;;;;;;3.10;2.80;;;25.00;77.40;;;;;;5055931;28;20228;-73
2023/08/10 09:28:37;;;;;;;4.43;2.70;;;25.10;78.30;;;;;;5054504;28;20226;-72
2023/08/10 09:31:04;;;;;;;3.40;2.87;;;25.20;78.40;;;;;;5055960;28;20220;-72
2023/08/10 09:33:34;;;;;;;5.40;2.53;;;25.30;78.10;;;;;;5054593;28;20238;-72
2023/08/10 09:36:01;;;;;;;3.40;3.10;;;25.40;77.70;;;;;;5054049;28;20711;-72
2023/08/10 09:38:28;;;;;;;3.70;2.70;;;25.50;78.10;;;;;;5073626;28;20197;-72
2023/08/10 09:41:09;;;;;;;4.77;3.13;;;25.70;78.30;;;;;;5061077;28;20622;-72
2023/08/10 09:43:37;;;;;;;3.00;2.70;;;25.70;75.60;;;;;;5058916;28;20202;-71
2023/08/10 09:46:05;;;;;;;2.93;2.63;;;25.70;75.60;;;;;;5057368;28;20229;-71
2023/08/10 09:48:35;;;;;;;2.70;2.50;;;25.90;76.90;;;;;;5054814;28;20205;-71
2023/08/10 09:51:04;;;;;;;3.73;2.97;;;26.00;77.70;;;;;;5074234;28;20331;-73
2023/08/10 09:53:31;;;;;;;2.73;2.47;;;26.10;76.10;;;;;;5057416;28;20205;-71
2023/08/10 09:55:58;;;;;;;2.63;2.43;;;26.20;76.50;;;;;;5071773;28;20316;-72
2023/08/10 09:58:27;;;;;;;2.87;2.57;;;26.30;75.30;;;;;;5061772;28;20229;-72
2023/08/10 10:00:55;;;;;;;3.17;2.20;;;26.40;76.10;;;;;;5058866;28;20213;-72
2023/08/10 10:03:22;;;;;;;3.10;2.73;;;26.60;75.80;;;;;;5074099;28;20586;-72
2023/08/10 10:05:50;;;;;;;3.30;2.40;;;26.70;75.50;;;;;;5073735;28;20202;-73
2023/08/10 10:08:18;;;;;;;2.77;2.57;;;26.80;74.90;;;;;;5062897;28;20226;-72
2023/08/10 10:10:45;;;;;;;2.97;2.70;;;26.90;74.50;;;;;;5068456;28;20193;-71
2023/08/10 10:13:13;;;;;;;4.50;2.50;;;27.10;73.60;;;;;;5068850;28;20213;-72
2023/08/10 10:15:42;;;;;;;2.53;2.30;;;27.20;72.40;;;;;;5064597;28;20241;-70
2023/08/10 10:18:10;;;;;;;3.07;2.60;;;27.30;70.70;;;;;;5070855;28;20553;-73
2023/08/10 10:20:40;;;;;;;3.27;2.17;;;27.30;69.90;;;;;;5073056;28;20320;-73
2023/08/10 10:23:14;;;;;;;2.83;2.47;;;27.40;70.80;;;;;;5073719;28;20228;-74
2023/08/10 10:25:42;;;;;;;3.40;2.40;;;27.40;70.90;;;;;;5070139;28;20229;-74
2023/08/10 10:28:16;;;;;;;3.23;2.40;;;27.60;70.70;;;;;;5073094;28;20310;-72
2023/08/10 10:30:56;;;;;;;2.57;2.30;;;27.80;70.10;;;;;;5070671;28;20196;-73
2023/08/10 10:33:25;;;;;;;2.80;2.50;;;27.90;67.00;;;;;;5060707;28;20196;-73
2023/08/10 10:36:10;;;;;;;4.27;2.60;;;28.00;67.50;;;;;;5070290;28;20692;-72
2023/08/10 10:38:39;;;;;;;2.33;2.10;;;28.10;68.70;;;;;;5058865;28;20830;-73
2023/08/10 10:41:16;;;;;;;2.70;2.43;;;28.20;68.20;;;;;;5061721;28;20696;-73
2023/08/10 10:43:44;;;;;;;2.57;2.37;;;28.30;67.30;;;;;;5058474;28;20211;-74
2023/08/10 10:46:37;;;;;;;2.80;2.47;;;28.40;67.00;;;;;;5053014;28;20197;-74
2023/08/10 10:49:07;;;;;;;3.63;2.43;;;28.50;65.00;;;;;;5053523;28;20312;-73
2023/08/10 10:51:44;;;;;;;4.13;2.10;;;28.60;66.10;;;;;;5052719;28;20209;-73
2023/08/10 10:54:13;;;;;;;2.60;2.37;;;28.60;62.30;;;;;;5034937;28;20242;-73
2023/08/10 10:56:40;;;;;;;3.20;2.10;;;28.70;61.80;;;;;;5053849;28;20221;-72
2023/08/10 10:59:07;;;;;;;2.53;2.00;;;28.60;61.40;;;;;;5060931;28;20793;-73
2023/08/10 11:01:34;;;;;;;2.30;2.10;;;28.50;61.90;;;;;;5067170;28;20203;-73
2023/08/10 11:04:07;;;;;;;3.70;2.40;;;28.60;61.80;;;;;;5066714;28;20197;-74
2023/08/10 11:06:37;;;;;;;3.83;2.40;;;28.70;62.00;;;;;;5072681;28;20235;-72
2023/08/10 11:09:07;;;;;;;2.83;2.40;;;28.80;62.10;;;;;;5066805;28;20240;-73
2023/08/10 11:11:35;;;;;;;2.33;2.13;;;28.90;61.90;;;;;;5053080;28;20312;-73
2023/08/10 11:14:02;;;;;;;2.20;2.00;;;29.00;61.90;;;;;;5066964;28;20213;-74
2023/08/10 11:16:41;;;;;;;3.93;2.50;;;29.10;62.80;;;;;;5071068;28;20827;-74
2023/08/10 11:19:13;;;;;;;3.20;2.30;;;29.20;62.70;;;;;;5052478;28;20669;-73
2023/08/10 11:21:42;;;;;;;4.67;2.17;;;29.30;62.00;;;;;;5052841;28;20434;-72
2023/08/10 11:24:09;;;;;;;2.57;2.37;;;29.30;61.80;;;;;;5052356;28;20227;-74
2023/08/10 11:26:37;;;;;;;2.97;2.47;;;29.40;61.40;;;;;;5052358;28;20205;-73
2023/08/10 11:29:04;;;;;;;2.47;2.27;;;29.30;60.80;;;;;;5066527;28;20318;-73
2023/08/10 11:31:38;;;;;;;2.13;2.03;;;29.40;60.10;;;;;;5067967;28;20616;-74
2023/08/10 11:34:20;;;;;;;2.87;2.40;;;29.50;59.70;;;;;;5036185;28;20219;-73
2023/08/10 11:36:47;;;;;;;2.53;2.33;;;29.60;59.20;;;;;;5062168;28;20672;-73
2023/08/10 11:39:13;;;;;;;2.93;2.07;;;29.60;60.00;;;;;;5070615;28;20286;-73
2023/08/10 11:41:42;;;;;;;2.23;2.07;;;29.70;58.20;;;;;;5070381;28;20227;-73
2023/08/10 11:44:08;;;;;;;2.30;2.10;;;29.70;57.10;;;;;;5051413;28;20201;-73
2023/08/10 11:46:35;;;;;;;2.20;2.00;;;29.80;56.40;;;;;;5050469;28;20235;-73
2023/08/10 11:49:02;;;;;;;2.30;2.10;;;29.80;56.50;;;;;;5050672;28;20224;-74
2023/08/10 11:51:34;;;;;;;2.90;1.93;;;29.90;56.70;;;;;;5049941;28;20228;-72
2023/08/10 11:54:08;;;;;;;2.97;2.27;;;29.90;56.80;;;;;;5049796;28;20241;-73
2023/08/10 11:56:35;;;;;;;2.37;1.97;;;30.00;55.70;;;;;;5050150;28;20205;-73
2023/08/10 11:59:11;;;;;;;2.60;2.10;;;30.10;56.50;;;;;;5049693;28;20228;-73
2023/08/10 12:01:45;;;;;;;2.40;2.20;;;30.20;56.40;;;;;;5050293;28;20284;-74
2023/08/10 12:04:14;;;;;;;2.67;2.13;;;30.30;55.80;;;;;;5050327;28;20571;-73
2023/08/10 12:06:42;;;;;;;2.53;2.30;;;30.30;54.80;;;;;;5050215;28;20596;-72
2023/08/10 12:09:10;;;;;;;3.17;2.20;;;30.40;54.40;;;;;;5050321;28;20202;-73
2023/08/10 12:11:37;;;;;;;2.77;2.20;;;30.40;54.00;;;;;;5049425;28;20221;-73
2023/08/10 12:14:07;;;;;;;2.40;2.20;;;30.50;55.90;;;;;;5050081;28;20213;-74
2023/08/10 12:16:34;;;;;;;2.33;2.07;;;30.50;54.60;;;;;;5049794;28;20251;-72
2023/08/10 12:19:00;;;;;;;2.67;2.20;;;30.60;54.80;;;;;;5050157;28;20229;-73
2023/08/10 12:21:27;;;;;;;2.90;2.50;;;30.70;54.00;;;;;;5049635;28;20216;-73
2023/08/10 12:23:56;;;;;;;2.00;1.90;;;30.70;53.60;;;;;;5049672;28;20218;-73
2023/08/10 12:26:23;;;;;;;2.30;2.10;;;30.70;53.30;;;;;;5050037;28;20225;-73
2023/08/10 12:28:50;;;;;;;3.10;2.30;;;30.80;53.00;;;;;;5049894;28;20237;-72
2023/08/10 12:31:17;;;;;;;2.37;2.17;;;30.90;52.90;;;;;;5050364;28;20578;-73
2023/08/10 12:33:44;;;;;;;2.50;2.30;;;30.90;52.50;;;;;;5054261;28;20672;-73
2023/08/10 12:36:11;;;;;;;2.70;2.40;;;30.90;52.40;;;;;;5053515;28;20728;-72
2023/08/10 12:38:38;;;;;;;2.73;2.40;;;31.00;52.60;;;;;;5053870;28;20229;-73
2023/08/10 12:41:06;;;;;;;4.07;2.20;;;31.10;52.70;;;;;;5053261;28;20221;-73
2023/08/10 12:43:34;;;;;;;2.33;2.13;;;31.20;53.50;;;;;;5067263;28;20197;-73
2023/08/10 12:46:00;;;;;;;2.73;2.30;;;31.20;52.70;;;;;;5073761;28;20299;-73
2023/08/10 12:48:27;;;;;;;2.50;2.23;;;31.30;52.50;;;;;;5073891;28;20602;-73
2023/08/10 12:50:54;;;;;;;2.37;2.17;;;31.30;51.40;;;;;;5073132;28;20323;-73